sensor_id;sensor_type;location;lat;lon;timestamp;pressure;altitude;pressure_sealevel;temperature;humidity
57900;BME280;60605;53.716;19.940;2023-05-21T00:02:36;101315.09;;;12.40;100.00
57900;BME280;60605;53.716;19.940;2023-05-21T00:07:38;101308.02;;;12.35;100.00
57900;BME280;60605;53.716;19.940;2023-05-21T00:12:40;101304.30;;;12.31;100.00
57900;BME280;60605;53.716;19.940;2023-05-21T00:17:42;101307.01;;;12.25;100.00
57900;BME280;60605;53.716;19.940;2023-05-21T00:22:47;101311.56;;;12.18;100.00
57900;BME280;60605;53.716;19.940;2023-05-21T00:27:49;101319.66;;;12.13;100.00
57900;BME280;60605;53.716;19.940;2023-05-21T00:32:50;101323.70;;;12.10;100.00
57900;BME280;60605;53.716;19.940;2023-05-21T00:37:53;101325.35;;;12.08;100.00
57900;BME280;60605;53.716;19.940;2023-05-21T00:42:54;101319.34;;;12.07;100.00
57900;BME280;60605;53.716;19.940;2023-05-21T00:47:58;101319.61;;;12.08;100.00
57900;BME280;60605;53.716;19.940;2023-05-21T00:53:00;101322.98;;;12.07;100.00
57900;BME280;60605;53.716;19.940;2023-05-21T00:58:03;101317.45;;;12.05;100.00
57900;BME280;60605;53.716;19.940;2023-05-21T01:03:05;101315.36;;;12.04;100.00
57900;BME280;60605;53.716;19.940;2023-05-21T01:08:07;101316.75;;;12.05;100.00
57900;BME280;60605;53.716;19.940;2023-05-21T01:13:10;101312.65;;;12.04;100.00
57900;BME280;60605;53.716;19.940;2023-05-21T01:18:13;101307.64;;;12.04;100.00
57900;BME280;60605;53.716;19.940;2023-05-21T01:23:17;101301.52;;;12.04;100.00
57900;BME280;60605;53.716;19.940;2023-05-21T01:28:19;101300.37;;;12.05;100.00
57900;BME280;60605;53.716;19.940;2023-05-21T01:33:41;101297.23;;;12.06;100.00
57900;BME280;60605;53.716;19.940;2023-05-21T01:44:25;101298.63;;;12.07;100.00
57900;BME280;60605;53.716;19.940;2023-05-21T01:49:28;101301.42;;;12.07;100.00
57900;BME280;60605;53.716;19.940;2023-05-21T01:54:30;101304.36;;;12.08;100.00
57900;BME280;60605;53.716;19.940;2023-05-21T01:59:32;101303.05;;;12.09;100.00
57900;BME280;60605;53.716;19.940;2023-05-21T02:04:34;101300.38;;;12.13;100.00
57900;BME280;60605;53.716;19.940;2023-05-21T02:09:36;101296.52;;;12.16;100.00
57900;BME280;60605;53.716;19.940;2023-05-21T02:14:38;101297.11;;;12.17;100.00
57900;BME280;60605;53.716;19.940;2023-05-21T02:19:40;101295.02;;;12.17;100.00
57900;BME280;60605;53.716;19.940;2023-05-21T02:24:44;101299.05;;;12.18;100.00
57900;BME280;60605;53.716;19.940;2023-05-21T02:29:46;101296.73;;;12.17;100.00
57900;BME280;60605;53.716;19.940;2023-05-21T02:34:48;101297.84;;;12.17;100.00
57900;BME280;60605;53.716;19.940;2023-05-21T02:39:50;101301.15;;;12.18;100.00
57900;BME280;60605;53.716;19.940;2023-05-21T02:44:52;101303.19;;;12.21;100.00
57900;BME280;60605;53.716;19.940;2023-05-21T02:49:54;101301.38;;;12.28;100.00
57900;BME280;60605;53.716;19.940;2023-05-21T02:54:59;101297.77;;;12.35;100.00
57900;BME280;60605;53.716;19.940;2023-05-21T03:00:01;101297.51;;;12.44;100.00
57900;BME280;60605;53.716;19.940;2023-05-21T03:05:05;101297.83;;;12.55;100.00
57900;BME280;60605;53.716;19.940;2023-05-21T03:10:07;101299.37;;;12.67;100.00
57900;BME280;60605;53.716;19.940;2023-05-21T03:15:10;101299.30;;;12.83;100.00
57900;BME280;60605;53.716;19.940;2023-05-21T03:20:12;101297.54;;;13.04;100.00
57900;BME280;60605;53.716;19.940;2023-05-21T03:25:17;101299.55;;;13.28;100.00
57900;BME280;60605;53.716;19.940;2023-05-21T03:30:19;101296.02;;;13.54;100.00
57900;BME280;60605;53.716;19.940;2023-05-21T03:35:21;101294.14;;;13.78;100.00
57900;BME280;60605;53.716;19.940;2023-05-21T03:40:23;101287.59;;;14.10;99.52
57900;BME280;60605;53.716;19.940;2023-05-21T03:45:25;101285.03;;;14.73;98.50
57900;BME280;60605;53.716;19.940;2023-05-21T03:50:27;101281.67;;;15.61;95.48
57900;BME280;60605;53.716;19.940;2023-05-21T03:55:29;101284.05;;;16.57;90.42
57900;BME280;60605;53.716;19.940;2023-05-21T04:00:31;101282.54;;;17.56;86.22
57900;BME280;60605;53.716;19.940;2023-05-21T04:05:35;101287.48;;;18.55;81.64
57900;BME280;60605;53.716;19.940;2023-05-21T04:10:37;101289.19;;;19.55;77.67
57900;BME280;60605;53.716;19.940;2023-05-21T04:15:39;101291.67;;;20.56;73.21
57900;BME280;60605;53.716;19.940;2023-05-21T04:20:42;101292.17;;;21.28;67.60
57900;BME280;60605;53.716;19.940;2023-05-21T04:25:44;101292.40;;;21.97;64.88
57900;BME280;60605;53.716;19.940;2023-05-21T04:30:51;101292.64;;;22.56;61.57
57900;BME280;60605;53.716;19.940;2023-05-21T04:35:54;101292.52;;;23.04;58.53
57900;BME280;60605;53.716;19.940;2023-05-21T04:40:56;101289.37;;;23.43;55.54
57900;BME280;60605;53.716;19.940;2023-05-21T04:45:59;101289.69;;;23.79;54.22
57900;BME280;60605;53.716;19.940;2023-05-21T04:51:02;101285.22;;;24.22;52.13
57900;BME280;60605;53.716;19.940;2023-05-21T04:56:06;101278.49;;;24.55;50.67
57900;BME280;60605;53.716;19.940;2023-05-21T05:01:09;101283.95;;;24.98;48.60
57900;BME280;60605;53.716;19.940;2023-05-21T05:06:13;101284.67;;;25.06;46.01
57900;BME280;60605;53.716;19.940;2023-05-21T05:11:15;101280.53;;;25.02;43.92
57900;BME280;60605;53.716;19.940;2023-05-21T05:16:17;101289.09;;;24.85;44.30
57900;BME280;60605;53.716;19.940;2023-05-21T05:21:25;101289.88;;;25.11;44.17
57900;BME280;60605;53.716;19.940;2023-05-21T05:26:27;101289.34;;;25.22;43.05
57900;BME280;60605;53.716;19.940;2023-05-21T05:31:29;101287.23;;;25.23;43.10
57900;BME280;60605;53.716;19.940;2023-05-21T05:36:31;101282.17;;;25.53;43.50
57900;BME280;60605;53.716;19.940;2023-05-21T05:41:34;101280.88;;;26.19;42.70
57900;BME280;60605;53.716;19.940;2023-05-21T05:46:36;101287.41;;;26.72;41.31
57900;BME280;60605;53.716;19.940;2023-05-21T05:51:39;101280.19;;;27.09;40.11
57900;BME280;60605;53.716;19.940;2023-05-21T05:56:41;101281.54;;;27.44;39.93
57900;BME280;60605;53.716;19.940;2023-05-21T06:01:43;101277.29;;;27.81;37.75
57900;BME280;60605;53.716;19.940;2023-05-21T06:06:45;101279.83;;;28.02;36.62
57900;BME280;60605;53.716;19.940;2023-05-21T06:11:49;101274.85;;;28.16;35.68
57900;BME280;60605;53.716;19.940;2023-05-21T06:16:51;101272.65;;;28.52;35.26
57900;BME280;60605;53.716;19.940;2023-05-21T06:21:53;101268.70;;;29.16;34.37
57900;BME280;60605;53.716;19.940;2023-05-21T06:26:55;101266.43;;;29.60;33.84
57900;BME280;60605;53.716;19.940;2023-05-21T06:31:57;101265.63;;;30.27;32.80
57900;BME280;60605;53.716;19.940;2023-05-21T06:36:59;101265.89;;;30.71;31.55
57900;BME280;60605;53.716;19.940;2023-05-21T06:42:01;101266.10;;;31.06;30.47
57900;BME280;60605;53.716;19.940;2023-05-21T06:47:04;101263.45;;;31.36;30.01
57900;BME280;60605;53.716;19.940;2023-05-21T06:52:06;101257.88;;;31.51;29.82
57900;BME280;60605;53.716;19.940;2023-05-21T06:57:09;101260.81;;;32.07;29.46
57900;BME280;60605;53.716;19.940;2023-05-21T07:02:15;101262.02;;;32.78;28.04
57900;BME280;60605;53.716;19.940;2023-05-21T07:07:18;101255.95;;;32.94;26.59
57900;BME280;60605;53.716;19.940;2023-05-21T07:12:19;101254.80;;;33.03;26.98
57900;BME280;60605;53.716;19.940;2023-05-21T07:17:22;101249.83;;;33.49;26.97
57900;BME280;60605;53.716;19.940;2023-05-21T07:22:24;101251.95;;;34.12;26.21
57900;BME280;60605;53.716;19.940;2023-05-21T07:27:29;101258.89;;;34.98;25.58
57900;BME280;60605;53.716;19.940;2023-05-21T07:32:31;101259.00;;;35.46;24.64
57900;BME280;60605;53.716;19.940;2023-05-21T07:37:33;101255.27;;;35.95;23.57
57900;BME280;60605;53.716;19.940;2023-05-21T07:42:35;101256.82;;;36.30;23.99
57900;BME280;60605;53.716;19.940;2023-05-21T07:47:37;101258.92;;;37.23;23.27
57900;BME280;60605;53.716;19.940;2023-05-21T07:52:39;101257.52;;;37.64;21.70
57900;BME280;60605;53.716;19.940;2023-05-21T07:57:42;101249.96;;;37.32;21.46
57900;BME280;60605;53.716;19.940;2023-05-21T08:02:44;101245.61;;;37.44;21.87
57900;BME280;60605;53.716;19.940;2023-05-21T08:07:47;101242.05;;;37.25;20.56
57900;BME280;60605;53.716;19.940;2023-05-21T08:12:49;101237.86;;;36.58;20.62
57900;BME280;60605;53.716;19.940;2023-05-21T08:17:51;101232.28;;;36.22;21.07
57900;BME280;60605;53.716;19.940;2023-05-21T08:22:53;101227.67;;;36.75;21.16
57900;BME280;60605;53.716;19.940;2023-05-21T08:27:56;101220.30;;;36.84;19.69
57900;BME280;60605;53.716;19.940;2023-05-21T08:32:59;101213.81;;;36.97;20.28
57900;BME280;60605;53.716;19.940;2023-05-21T08:38:01;101214.16;;;37.17;19.25
57900;BME280;60605;53.716;19.940;2023-05-21T08:43:04;101210.85;;;37.08;20.18
57900;BME280;60605;53.716;19.940;2023-05-21T08:48:07;101208.16;;;37.77;19.83
57900;BME280;60605;53.716;19.940;2023-05-21T08:53:12;101212.34;;;37.58;19.67
57900;BME280;60605;53.716;19.940;2023-05-21T08:58:31;101205.69;;;37.89;19.51
57900;BME280;60605;53.716;19.940;2023-05-21T09:03:36;101204.77;;;37.49;18.38
57900;BME280;60605;53.716;19.940;2023-05-21T09:08:45;101199.42;;;36.88;18.51
57900;BME280;60605;53.716;19.940;2023-05-21T09:13:51;101199.89;;;36.68;19.12
57900;BME280;60605;53.716;19.940;2023-05-21T09:18:54;101196.42;;;37.11;19.36
57900;BME280;60605;53.716;19.940;2023-05-21T09:23:58;101195.09;;;37.28;18.66
57900;BME280;60605;53.716;19.940;2023-05-21T09:29:01;101191.56;;;36.89;18.44
57900;BME280;60605;53.716;19.940;2023-05-21T09:34:03;101188.35;;;36.98;18.95
57900;BME280;60605;53.716;19.940;2023-05-21T09:39:05;101180.68;;;37.32;19.31
57900;BME280;60605;53.716;19.940;2023-05-21T09:44:09;101176.02;;;37.33;18.63
57900;BME280;60605;53.716;19.940;2023-05-21T09:49:22;101175.64;;;36.42;18.35
57900;BME280;60605;53.716;19.940;2023-05-21T09:54:32;101172.77;;;35.66;19.54
57900;BME280;60605;53.716;19.940;2023-05-21T09:59:38;101166.56;;;35.71;20.56
57900;BME280;60605;53.716;19.940;2023-05-21T10:04:41;101154.95;;;35.04;20.08
57900;BME280;60605;53.716;19.940;2023-05-21T10:09:47;101151.70;;;33.55;20.89
57900;BME280;60605;53.716;19.940;2023-05-21T10:14:55;101146.37;;;32.23;22.63
57900;BME280;60605;53.716;19.940;2023-05-21T10:19:59;101143.47;;;31.26;22.94
57900;BME280;60605;53.716;19.940;2023-05-21T10:25:02;101139.99;;;30.06;22.82
57900;BME280;60605;53.716;19.940;2023-05-21T10:30:06;101138.00;;;29.11;23.98
57900;BME280;60605;53.716;19.940;2023-05-21T10:35:09;101142.27;;;28.73;24.92
57900;BME280;60605;53.716;19.940;2023-05-21T10:40:12;101138.49;;;28.48;25.01
57900;BME280;60605;53.716;19.940;2023-05-21T11:01:31;101104.16;;;27.60;26.89
57900;BME280;60605;53.716;19.940;2023-05-21T11:06:34;101098.30;;;27.67;26.12
57900;BME280;60605;53.716;19.940;2023-05-21T11:12:06;101099.73;;;27.21;25.67
57900;BME280;60605;53.716;19.940;2023-05-21T11:17:21;101089.20;;;26.68;26.11
57900;BME280;60605;53.716;19.940;2023-05-21T11:22:36;101085.21;;;26.47;27.45
57900;BME280;60605;53.716;19.940;2023-05-21T11:27:40;101082.98;;;26.63;27.31
57900;BME280;60605;53.716;19.940;2023-05-21T11:38:14;101080.36;;;26.52;27.56
57900;BME280;60605;53.716;19.940;2023-05-21T11:43:18;101082.29;;;26.64;27.59
57900;BME280;60605;53.716;19.940;2023-05-21T11:48:20;101071.16;;;26.77;27.29
57900;BME280;60605;53.716;19.940;2023-05-21T11:53:29;101066.35;;;26.81;27.03
57900;BME280;60605;53.716;19.940;2023-05-21T11:58:31;101063.11;;;26.92;27.50
57900;BME280;60605;53.716;19.940;2023-05-21T12:03:33;101070.19;;;26.89;26.58
57900;BME280;60605;53.716;19.940;2023-05-21T12:08:35;101068.30;;;26.83;26.78
57900;BME280;60605;53.716;19.940;2023-05-21T12:13:39;101058.92;;;26.91;26.71
57900;BME280;60605;53.716;19.940;2023-05-21T12:18:42;101056.45;;;26.97;26.72
57900;BME280;60605;53.716;19.940;2023-05-21T12:23:44;101061.23;;;26.83;26.38
57900;BME280;60605;53.716;19.940;2023-05-21T12:28:46;101058.14;;;26.60;26.58
57900;BME280;60605;53.716;19.940;2023-05-21T12:33:49;101054.23;;;26.64;27.04
57900;BME280;60605;53.716;19.940;2023-05-21T12:38:52;101049.19;;;26.70;26.13
57900;BME280;60605;53.716;19.940;2023-05-21T12:43:55;101045.48;;;26.78;25.89
57900;BME280;60605;53.716;19.940;2023-05-21T12:48:58;101045.59;;;26.84;25.89
57900;BME280;60605;53.716;19.940;2023-05-21T12:54:00;101038.84;;;26.63;26.03
57900;BME280;60605;53.716;19.940;2023-05-21T12:59:03;101038.74;;;26.38;26.12
57900;BME280;60605;53.716;19.940;2023-05-21T13:04:05;101029.27;;;26.28;26.35
57900;BME280;60605;53.716;19.940;2023-05-21T13:09:08;101029.89;;;26.44;26.53
57900;BME280;60605;53.716;19.940;2023-05-21T13:14:10;101025.15;;;26.57;26.05
57900;BME280;60605;53.716;19.940;2023-05-21T13:19:12;101018.80;;;26.62;26.10
57900;BME280;60605;53.716;19.940;2023-05-21T13:24:16;101011.82;;;26.65;26.08
57900;BME280;60605;53.716;19.940;2023-05-21T13:29:17;101009.56;;;26.51;25.36
57900;BME280;60605;53.716;19.940;2023-05-21T13:34:20;101005.61;;;26.39;25.65
57900;BME280;60605;53.716;19.940;2023-05-21T13:39:21;101001.48;;;26.29;26.42
57900;BME280;60605;53.716;19.940;2023-05-21T13:44:27;100999.23;;;26.21;27.21
57900;BME280;60605;53.716;19.940;2023-05-21T13:49:29;100993.48;;;26.20;27.48
57900;BME280;60605;53.716;19.940;2023-05-21T13:54:31;100989.65;;;26.18;27.53
57900;BME280;60605;53.716;19.940;2023-05-21T13:59:33;100984.78;;;26.28;27.41
57900;BME280;60605;53.716;19.940;2023-05-21T14:04:36;100975.88;;;26.32;27.24
57900;BME280;60605;53.716;19.940;2023-05-21T14:09:40;100970.46;;;26.25;26.99
57900;BME280;60605;53.716;19.940;2023-05-21T14:14:43;100967.23;;;26.23;27.41
57900;BME280;60605;53.716;19.940;2023-05-21T14:19:45;100967.20;;;26.22;27.26
57900;BME280;60605;53.716;19.940;2023-05-21T14:24:48;100967.29;;;26.21;27.55
57900;BME280;60605;53.716;19.940;2023-05-21T14:29:50;100965.07;;;26.14;27.39
57900;BME280;60605;53.716;19.940;2023-05-21T14:34:53;100966.25;;;26.04;27.41
57900;BME280;60605;53.716;19.940;2023-05-21T14:39:56;100963.45;;;25.95;27.18
57900;BME280;60605;53.716;19.940;2023-05-21T14:44:58;100958.70;;;25.91;27.22
57900;BME280;60605;53.716;19.940;2023-05-21T14:50:00;100954.90;;;25.87;26.82
57900;BME280;60605;53.716;19.940;2023-05-21T14:55:04;100952.60;;;25.85;27.07
57900;BME280;60605;53.716;19.940;2023-05-21T15:00:07;100947.30;;;25.84;25.96
57900;BME280;60605;53.716;19.940;2023-05-21T15:05:11;100941.67;;;25.77;26.41
57900;BME280;60605;53.716;19.940;2023-05-21T15:10:13;100938.70;;;25.70;27.93
57900;BME280;60605;53.716;19.940;2023-05-21T15:15:16;100935.98;;;25.61;27.47
57900;BME280;60605;53.716;19.940;2023-05-21T15:20:18;100931.23;;;25.51;27.31
57900;BME280;60605;53.716;19.940;2023-05-21T15:25:20;100936.50;;;25.46;27.00
57900;BME280;60605;53.716;19.940;2023-05-21T15:30:23;100939.66;;;25.39;27.29
57900;BME280;60605;53.716;19.940;2023-05-21T15:35:28;100929.27;;;25.39;27.49
57900;BME280;60605;53.716;19.940;2023-05-21T15:40:30;100931.48;;;25.38;27.24
57900;BME280;60605;53.716;19.940;2023-05-21T15:45:33;100930.13;;;25.34;27.14
57900;BME280;60605;53.716;19.940;2023-05-21T15:50:34;100927.58;;;25.32;26.72
57900;BME280;60605;53.716;19.940;2023-05-21T15:55:38;100929.15;;;25.26;26.39
57900;BME280;60605;53.716;19.940;2023-05-21T16:00:40;100920.73;;;25.18;26.13
57900;BME280;60605;53.716;19.940;2023-05-21T16:05:43;100923.16;;;25.10;25.94
57900;BME280;60605;53.716;19.940;2023-05-21T16:10:45;100917.14;;;25.06;25.96
57900;BME280;60605;53.716;19.940;2023-05-21T16:15:47;100911.34;;;25.01;25.89
57900;BME280;60605;53.716;19.940;2023-05-21T16:20:49;100913.65;;;24.91;25.77
57900;BME280;60605;53.716;19.940;2023-05-21T16:25:51;100908.63;;;24.81;25.72
57900;BME280;60605;53.716;19.940;2023-05-21T16:30:53;100905.13;;;24.71;26.19
57900;BME280;60605;53.716;19.940;2023-05-21T16:35:55;100906.48;;;24.57;27.53
57900;BME280;60605;53.716;19.940;2023-05-21T16:40:58;100904.19;;;24.38;29.41
57900;BME280;60605;53.716;19.940;2023-05-21T16:46:00;100905.38;;;24.17;30.67
57900;BME280;60605;53.716;19.940;2023-05-21T16:51:03;100905.12;;;23.96;31.63
57900;BME280;60605;53.716;19.940;2023-05-21T16:56:05;100902.45;;;23.82;31.98
57900;BME280;60605;53.716;19.940;2023-05-21T17:01:08;100903.90;;;23.73;32.23
57900;BME280;60605;53.716;19.940;2023-05-21T17:06:11;100911.18;;;23.61;32.56
57900;BME280;60605;53.716;19.940;2023-05-21T17:11:16;100910.25;;;23.43;32.68
57900;BME280;60605;53.716;19.940;2023-05-21T17:16:18;100913.59;;;23.22;33.10
57900;BME280;60605;53.716;19.940;2023-05-21T17:21:20;100916.42;;;23.01;33.52
57900;BME280;60605;53.716;19.940;2023-05-21T17:26:25;100915.33;;;22.82;33.71
57900;BME280;60605;53.716;19.940;2023-05-21T17:31:28;100916.01;;;22.68;34.18
57900;BME280;60605;53.716;19.940;2023-05-21T17:36:36;100913.19;;;22.55;34.62
57900;BME280;60605;53.716;19.940;2023-05-21T17:41:38;100916.02;;;22.45;34.86
57900;BME280;60605;53.716;19.940;2023-05-21T17:46:40;100910.16;;;22.34;34.92
57900;BME280;60605;53.716;19.940;2023-05-21T17:51:43;100904.64;;;22.21;35.14
57900;BME280;60605;53.716;19.940;2023-05-21T17:56:46;100906.55;;;22.08;35.45
57900;BME280;60605;53.716;19.940;2023-05-21T18:01:48;100902.61;;;21.89;35.97
57900;BME280;60605;53.716;19.940;2023-05-21T18:06:50;100901.86;;;21.72;36.37
57900;BME280;60605;53.716;19.940;2023-05-21T18:11:53;100904.72;;;21.54;36.65
57900;BME280;60605;53.716;19.940;2023-05-21T18:16:55;100907.96;;;21.36;37.01
57900;BME280;60605;53.716;19.940;2023-05-21T18:21:57;100910.60;;;21.17;37.46
57900;BME280;60605;53.716;19.940;2023-05-21T18:26:59;100916.49;;;20.94;38.06
57900;BME280;60605;53.716;19.940;2023-05-21T18:32:03;100916.05;;;20.73;38.55
57900;BME280;60605;53.716;19.940;2023-05-21T18:37:05;100918.39;;;20.49;39.09
57900;BME280;60605;53.716;19.940;2023-05-21T18:42:08;100926.15;;;20.22;39.61
57900;BME280;60605;53.716;19.940;2023-05-21T18:47:15;100931.55;;;19.93;40.38
57900;BME280;60605;53.716;19.940;2023-05-21T18:52:18;100935.98;;;19.64;40.92
57900;BME280;60605;53.716;19.940;2023-05-21T18:57:21;100938.05;;;19.38;41.50
57900;BME280;60605;53.716;19.940;2023-05-21T19:02:23;100940.45;;;19.13;42.04
57900;BME280;60605;53.716;19.940;2023-05-21T19:07:26;100941.27;;;18.93;42.67
57900;BME280;60605;53.716;19.940;2023-05-21T19:12:29;100940.37;;;18.72;43.31
57900;BME280;60605;53.716;19.940;2023-05-21T19:17:32;100942.90;;;18.51;44.08
57900;BME280;60605;53.716;19.940;2023-05-21T19:22:37;100941.91;;;18.31;44.79
57900;BME280;60605;53.716;19.940;2023-05-21T19:27:40;100949.70;;;18.12;45.45
57900;BME280;60605;53.716;19.940;2023-05-21T19:32:42;100949.58;;;17.95;46.10
57900;BME280;60605;53.716;19.940;2023-05-21T19:37:45;100948.76;;;17.76;46.63
57900;BME280;60605;53.716;19.940;2023-05-21T19:42:47;100948.04;;;17.55;47.22
57900;BME280;60605;53.716;19.940;2023-05-21T19:47:51;100941.34;;;17.35;47.98
57900;BME280;60605;53.716;19.940;2023-05-21T19:52:55;100937.25;;;17.18;48.58
57900;BME280;60605;53.716;19.940;2023-05-21T19:57:57;100932.05;;;17.05;49.44
57900;BME280;60605;53.716;19.940;2023-05-21T20:02:59;100937.30;;;16.96;49.89
57900;BME280;60605;53.716;19.940;2023-05-21T20:08:02;100933.29;;;16.86;50.26
57900;BME280;60605;53.716;19.940;2023-05-21T20:13:05;100928.54;;;16.74;50.79
57900;BME280;60605;53.716;19.940;2023-05-21T20:18:07;100925.75;;;16.64;51.34
57900;BME280;60605;53.716;19.940;2023-05-21T20:23:10;100927.04;;;16.53;51.95
57900;BME280;60605;53.716;19.940;2023-05-21T20:28:12;100929.38;;;16.40;52.29
57900;BME280;60605;53.716;19.940;2023-05-21T20:33:14;100929.23;;;16.27;52.85
57900;BME280;60605;53.716;19.940;2023-05-21T20:38:16;100935.44;;;16.15;53.06
57900;BME280;60605;53.716;19.940;2023-05-21T20:43:18;100944.15;;;16.02;53.45
57900;BME280;60605;53.716;19.940;2023-05-21T20:48:20;100949.94;;;15.91;53.98
57900;BME280;60605;53.716;19.940;2023-05-21T20:53:23;100953.05;;;15.81;54.38
57900;BME280;60605;53.716;19.940;2023-05-21T20:58:27;100956.92;;;15.68;54.91
57900;BME280;60605;53.716;19.940;2023-05-21T21:03:30;100959.78;;;15.54;55.23
57900;BME280;60605;53.716;19.940;2023-05-21T21:08:34;100957.59;;;15.38;55.89
57900;BME280;60605;53.716;19.940;2023-05-21T21:13:36;100957.49;;;15.21;56.92
57900;BME280;60605;53.716;19.940;2023-05-21T21:18:38;100960.56;;;14.96;58.69
57900;BME280;60605;53.716;19.940;2023-05-21T21:23:40;100963.19;;;14.70;60.87
57900;BME280;60605;53.716;19.940;2023-05-21T21:28:43;100959.11;;;14.45;61.93
57900;BME280;60605;53.716;19.940;2023-05-21T21:33:47;100959.66;;;14.22;62.20
57900;BME280;60605;53.716;19.940;2023-05-21T21:38:50;100955.30;;;14.02;63.01
57900;BME280;60605;53.716;19.940;2023-05-21T21:43:52;100956.13;;;13.83;64.20
57900;BME280;60605;53.716;19.940;2023-05-21T21:48:53;100957.02;;;13.64;65.18
57900;BME280;60605;53.716;19.940;2023-05-21T21:53:55;100959.95;;;13.46;66.44
57900;BME280;60605;53.716;19.940;2023-05-21T21:58:57;100960.85;;;13.32;67.42
57900;BME280;60605;53.716;19.940;2023-05-21T22:03:59;100962.73;;;13.16;68.29
57900;BME280;60605;53.716;19.940;2023-05-21T22:09:01;100963.41;;;12.98;69.23
57900;BME280;60605;53.716;19.940;2023-05-21T22:14:04;100962.22;;;12.79;69.86
57900;BME280;60605;53.716;19.940;2023-05-21T22:19:06;100957.65;;;12.60;70.68
57900;BME280;60605;53.716;19.940;2023-05-21T22:24:09;100952.00;;;12.45;71.59
57900;BME280;60605;53.716;19.940;2023-05-21T22:29:31;100951.42;;;12.35;72.86
57900;BME280;60605;53.716;19.940;2023-05-21T22:34:33;100949.98;;;12.30;73.12
57900;BME280;60605;53.716;19.940;2023-05-21T22:39:35;100952.89;;;12.26;73.52
57900;BME280;60605;53.716;19.940;2023-05-21T22:44:37;100952.23;;;12.24;74.06
57900;BME280;60605;53.716;19.940;2023-05-21T22:49:39;100948.53;;;12.19;74.51
57900;BME280;60605;53.716;19.940;2023-05-21T22:54:41;100949.21;;;12.12;74.80
57900;BME280;60605;53.716;19.940;2023-05-21T22:59:43;100941.95;;;12.02;75.41
57900;BME280;60605;53.716;19.940;2023-05-21T23:04:45;100942.48;;;11.93;76.07
57900;BME280;60605;53.716;19.940;2023-05-21T23:09:48;100941.42;;;11.85;76.46
57900;BME280;60605;53.716;19.940;2023-05-21T23:14:52;100941.39;;;11.80;76.78
57900;BME280;60605;53.716;19.940;2023-05-21T23:19:54;100935.75;;;11.73;77.22
57900;BME280;60605;53.716;19.940;2023-05-21T23:24:56;100932.54;;;11.70;77.78
57900;BME280;60605;53.716;19.940;2023-05-21T23:29:59;100936.30;;;11.64;77.97
57900;BME280;60605;53.716;19.940;2023-05-21T23:35:01;100931.73;;;11.53;78.11
57900;BME280;60605;53.716;19.940;2023-05-21T23:40:03;100937.93;;;11.44;78.54
57900;BME280;60605;53.716;19.940;2023-05-21T23:45:06;100938.36;;;11.38;78.76
57900;BME280;60605;53.716;19.940;2023-05-21T23:50:09;100936.80;;;11.34;79.40
57900;BME280;60605;53.716;19.940;2023-05-21T23:55:11;100932.29;;;11.27;80.39
